Ostrander, MN (55961)

7:39 AM CDT on April 19, 2015 (GMT -0500)
IEM | | Change Station
CLOSE
Current Station
Personal Weather Station
Location: Le Roy, MN
Elevation: 1290 ft
Nearby Weather Stations

Elev 1290 ft 43.51 °N, 92.51 °W | Updated 20 minutes ago

Overcast
Overcast
48 °F
Feels Like 48 °F
N
0
Wind Variable Wind from North
Gusts 0.0 mph

Today
High -- | Low -- °F
--% Chance of Precip.
Yesterday
High -- | Low -- °F
Precip. -- in
6:20 AM 7:57 PM
New Moon, 1% visible
Pressure 29.78 in
Visibility 10.0 miles
Clouds Overcast 9000 ft
Windchill 48 °F
Dew Point 43 °F
Humidity 81%
Rainfall in
Snow Depth Not available.
UV 0 out of 12
Pollen 3.70 out of 12
Air Quality Not available.
Flu Activity Local Activity
METAR KFKA 191235Z AUTO 15006KT 10SM -RA OVC090 10/04 A2978 RMK AO2 T00950044

More Conditions Fewer Conditions

Pressure 29.78 in
Visibility 10.0 miles
Clouds Overcast 9000 ft
Windchill 48 °F
Dew Point 43 °F
Humidity 81%
Rainfall in
Snow Depth Not available.
UV 0 out of 12
Pollen 3.70 out of 12
Air Quality Not available.
Flu Activity Local Activity
METAR KFKA 191235Z AUTO 15006KT 10SM -RA OVC090 10/04 A2978 RMK AO2 T00950044

More Conditions Fewer Conditions

10-Day Weather Forecast

Almanac

Astronomy

Apr. 19, 2015 Rise Set
Actual Time
Civil Twilight
Nautical Twilight
Astronomical Twilight
Moon
Length of Visible Light
Length of Day
Tomorrow will be .
, % of the Moon is Illuminated

Today's Extremes

State Highs State Lows

Community

WunderPhotos

Upload Photos

1,814,771 photos uploaded!

WunderBlogs® & News

Nearby

Air Quality

  Air Quality AQ Index Pollutant
Not available.

Snow Depth

Station Depth Elevation

Earthquake Activity

City Distance Mag. Time & Date
Minimum magnitude displayed is 2.5.

Coastal Water Temperatures

Place Temperature

Stations

Nearby Weather Stations

Station Location Temp. Windchill Dew Point Humidity Wind Precip. Elev Updated Type